John Wayne Airport-Orange County Airport
KSNA : now visible

Airfield :











YOU CAN JOIN US ON...

 
LOGIN :

Register | Disclaimer

   EN    FR    IT 

 









Legend :    VFR   Marginal VFR   IFR   Intensive IFR   Very Intensive IFR
Visi :
Ceiling :
>= 8 km
>= 3000ft
5 to 8 km
1000 to 3000 ft
1500m to 5 km
500 to 1000 ft
800 to 1500m
200 to 500 ft
< 800m
< 200 ft
Symbols :   Thunderstorms  Fog  Heavy snow  Heavy precipitations  Wind > 20 kt







- Airport Elevation : 56 ft
- IATA code : SNA


KSNA - John Wayne -Orange County

CURRENT METAR :
  • 210353Z 22006KT 10SM FEW060 16/10 A2998 RMK AO2 SLP150 T01560100

EXPIRED METARs :
  • 210253Z 22006KT 10SM FEW060 16/09 A2995 RMK AO2 SLP140 T01610094 53004
  • 210153Z 26006KT 10SM FEW050 17/09 A2994 RMK AO2 SLP138 T01720089

TAF KSNA
Valid from the 21 at 00:00 until the 22 at 00:00 UTC


202320Z 2100/2124 25010KT P6SM FEW030 FEW045
FM210300 22007KT P6SM SCT025 BKN040
FM210900 17007KT P6SM BKN025
FM211700 23010G18KT P6SM SCT025 BKN035
KZLA FIR / North America



MET'MAP, your aeronautical weather chart ! - Copyright ORBIFLY December 2007 - Disclaimer

ORBIFLY MET'MAP TEAM :

Programming & Development : Alexandra Zaïnal
Concept & Development : Baudouin d'Aumeries
Co-Development & Prog : Marc-Olivier Méhu
Technical & hardware support : Manuel Goepfert

Contact : metmap@orbifly.com




SOURCES & CREDITS :

   NOAA       Earth
Advisory